Bay Point, New York
Current Conditions -  °F | °C
As of 12:14 AM on Monday 22 Dec 2014 (Local Time) from KFOK Reporting Station
Overcast Overcast  
Wind Chill: -1°   Ceiling: 3900
Heat Index:   Visibility: 10mi
Dew Point:   Wind: 8mph
Humidity: 89%   Direction: 30°NNE
Pressure: 30.32"   Gusts: NA
Location:  40.9692°N, 72.306°W
Report Text: KFOK 220514Z AUTO 03007KT 10SM FEW027 SCT032 OVC039 03/01 A3032 RMK AO2 T00280011 TSNO
Loading
Personal Weather Stations






























Interactive Weather Map New forecast layout! Learn more

10-Day Weather Forecast

Advertisements
Track Severe Weather on mobile